Mount Sterling, Iowa
Current Conditions -  °F | °C
As of 4:55 PM on Monday 24 Nov 2014 (Local Time) from KEOK Reporting Station
Unknown Precip Unknown Precip  
Wind Chill: 18°   Ceiling: 2900
Heat Index: 30°   Visibility: 10mi
Dew Point: 25°   Wind: 17mph
Humidity: 80%   Direction: 270°W
Pressure: 29.79"   Gusts: NA
Location:  40.62°N, 91.93°W
Report Text: KEOK 242255Z AUTO 27015KT 10SM -UP OVC029 M01/M04 A2979 RMK AO2
Loading
Personal Weather Stations






























Interactive Weather Map New forecast layout! Learn more

10-Day Weather Forecast

Advertisements
Track Severe Weather on mobile